Time;durP1;ratioP1;P1;durP2;ratioP2;P2;SDS_P1;SDS_P2;PMS_P1;PMS_P2;Temp;Humidity;BMP_temperature;BMP_pressure;BME280_temperature;BME280_humidity;BME280_pressure;Samples;Min_cycle;Max_cycle;Signal;HPM_P1;HPM_P2
2022/07/11 00:00:04;;;;;;;21.75;8.73;;;;;;;16.84;100.00;102036.91;5029974;28;20041;-77
2022/07/11 00:02:30;;;;;;;19.73;9.23;;;;;;;16.76;100.00;102036.69;5038193;28;20037;-77
2022/07/11 00:04:56;;;;;;;24.42;9.27;;;;;;;16.58;100.00;102032.72;5039259;28;20105;-77
2022/07/11 00:07:21;;;;;;;25.70;10.30;;;;;;;16.55;100.00;102039.41;5034770;28;20044;-77
2022/07/11 00:09:47;;;;;;;20.40;10.38;;;;;;;16.46;100.00;102038.31;5033834;28;20033;-77
2022/07/11 00:12:13;;;;;;;20.88;9.95;;;;;;;16.42;100.00;102042.34;5049042;28;20044;-77
2022/07/11 00:14:40;;;;;;;26.48;10.68;;;;;;;16.30;100.00;102035.97;5034346;28;20042;-77
2022/07/11 00:17:07;;;;;;;22.23;10.60;;;;;;;16.34;100.00;102047.63;5034880;28;20051;-77
2022/07/11 00:19:35;;;;;;;29.58;10.45;;;;;;;16.25;100.00;102046.53;5020655;28;20037;-77
2022/07/11 00:22:00;;;;;;;22.58;10.52;;;;;;;16.20;100.00;102037.78;5036898;28;20393;-77
2022/07/11 00:24:26;;;;;;;21.25;10.43;;;;;;;16.16;100.00;102039.03;5042571;28;20041;-77
2022/07/11 00:26:52;;;;;;;21.17;10.63;;;;;;;16.17;100.00;102040.78;5027838;28;20049;-77
2022/07/11 00:29:19;;;;;;;25.23;11.63;;;;;;;16.11;100.00;102036.63;5009983;28;20072;-77
2022/07/11 00:31:45;;;;;;;23.15;10.18;;;;;;;16.05;100.00;102025.22;5034914;28;20548;-77
2022/07/11 00:34:10;;;;;;;20.88;10.55;;;;;;;15.98;100.00;102035.91;5046881;28;20041;-77
2022/07/11 00:36:36;;;;;;;30.38;11.30;;;;;;;15.96;100.00;102037.94;5041314;28;20036;-77
2022/07/11 00:39:02;;;;;;;17.95;11.25;;;;;;;15.91;100.00;102035.53;5038989;28;20135;-77
2022/07/11 00:41:27;;;;;;;25.75;11.38;;;;;;;15.90;100.00;102032.91;5046560;28;20033;-77
2022/07/11 00:43:58;;;;;;;29.58;11.60;;;;;;;15.87;100.00;102034.06;5030598;28;20064;-77
2022/07/11 00:46:24;;;;;;;29.27;12.02;;;;;;;15.87;100.00;102024.88;5008973;28;20068;-77
2022/07/11 00:48:51;;;;;;;24.55;12.40;;;;;;;15.83;100.00;102029.78;5016808;28;20041;-77
2022/07/11 00:51:23;;;;;;;28.48;12.43;;;;;;;15.84;100.00;102023.25;5029289;28;20112;-77
2022/07/11 00:53:55;;;;;;;27.92;12.70;;;;;;;15.90;100.00;102019.97;5035960;28;20412;-76
2022/07/11 00:56:27;;;;;;;27.73;13.10;;;;;;;15.83;100.00;102023.38;5022316;28;20036;-77
2022/07/11 00:58:56;;;;;;;25.00;13.13;;;;;;;15.76;100.00;102009.22;5046861;28;20029;-77
2022/07/11 01:01:22;;;;;;;22.40;13.27;;;;;;;15.74;100.00;102016.69;5043630;28;20045;-77
2022/07/11 01:03:48;;;;;;;29.85;13.18;;;;;;;15.76;100.00;102020.25;5042238;28;20476;-77
2022/07/11 01:06:13;;;;;;;29.40;12.65;;;;;;;15.76;100.00;102018.38;5047253;28;20047;-77
2022/07/11 01:08:39;;;;;;;30.20;13.63;;;;;;;15.71;100.00;102019.69;5037494;28;20029;-77
2022/07/11 01:11:12;;;;;;;29.02;13.55;;;;;;;15.61;100.00;102020.47;5028381;28;20045;-77
2022/07/11 01:13:38;;;;;;;;;;;;;;;15.62;100.00;102024.09;5033399;28;20013;-77
2022/07/11 01:16:16;;;;;;;25.85;14.27;;;;;;;15.67;100.00;102021.84;5021953;28;19962;-77
2022/07/11 01:18:50;;;;;;;27.08;13.93;;;;;;;15.62;100.00;102013.94;5046535;28;20036;-77
2022/07/11 01:21:22;;;;;;;36.25;15.45;;;;;;;15.53;100.00;102009.19;5052529;28;20033;-77
2022/07/11 01:23:48;;;;;;;37.17;15.40;;;;;;;15.46;100.00;102012.56;5035921;28;20029;-77
2022/07/11 01:26:20;;;;;;;28.85;14.73;;;;;;;15.40;100.00;102008.44;5050308;28;20155;-77
2022/07/11 01:28:45;;;;;;;33.22;15.30;;;;;;;15.37;100.00;102012.31;5037793;28;20076;-76
2022/07/11 01:31:12;;;;;;;33.40;16.48;;;;;;;15.42;100.00;102014.69;5039707;28;20420;-77
2022/07/11 01:33:38;;;;;;;34.60;16.42;;;;;;;15.35;100.00;102010.69;5026080;28;20040;-77
2022/07/11 01:36:04;;;;;;;34.72;15.95;;;;;;;15.42;100.00;102011.94;5037621;28;20053;-77
2022/07/11 01:38:30;;;;;;;32.13;16.85;;;;;;;15.44;100.00;102015.44;5042956;28;20045;-77
2022/07/11 01:40:55;;;;;;;28.63;16.02;;;;;;;15.48;100.00;102007.78;5019677;28;20044;-77
2022/07/11 01:43:21;;;;;;;32.35;16.17;;;;;;;15.53;100.00;102013.84;5024353;28;20041;-77
2022/07/11 01:45:51;;;;;;;36.55;17.90;;;;;;;15.69;100.00;102013.44;5017909;28;20033;-76
2022/07/11 01:48:17;;;;;;;33.60;18.20;;;;;;;15.69;100.00;102008.81;5034912;28;20025;-77
2022/07/11 01:50:43;;;;;;;32.35;17.13;;;;;;;15.75;100.00;102008.28;5021442;28;20420;-76
2022/07/11 01:53:08;;;;;;;33.97;18.02;;;;;;;15.80;100.00;102016.22;5036084;28;20047;-76
2022/07/11 01:55:33;;;;;;;36.42;16.92;;;;;;;15.89;100.00;102011.81;5033354;28;20037;-77
2022/07/11 01:57:59;;;;;;;40.42;17.42;;;;;;;15.86;100.00;102020.38;5018805;28;20056;-75
2022/07/11 02:00:24;;;;;;;37.03;17.80;;;;;;;15.88;100.00;102021.13;5034752;28;20041;-78
2022/07/11 02:02:50;;;;;;;42.70;18.60;;;;;;;15.90;100.00;102022.72;5035832;28;20037;-77
2022/07/11 02:05:15;;;;;;;31.85;16.55;;;;;;;15.96;100.00;102018.59;5035028;28;20044;-76
2022/07/11 02:10:29;;;;;;;33.38;16.90;;;;;;;16.07;100.00;102023.19;5034838;28;20048;-76
2022/07/11 02:12:58;;;;;;;35.58;17.58;;;;;;;16.05;100.00;102019.69;5037045;28;20029;-77
2022/07/11 02:15:25;;;;;;;36.65;17.35;;;;;;;16.08;100.00;102024.97;5038741;28;20034;-76
2022/07/11 02:17:51;;;;;;;35.47;17.08;;;;;;;15.99;100.00;102019.22;5035356;28;20087;-77
2022/07/11 02:20:18;;;;;;;32.80;17.48;;;;;;;16.10;100.00;102023.84;5027038;28;20034;-76
2022/07/11 02:22:44;;;;;;;42.38;17.70;;;;;;;16.10;100.00;102026.59;5033779;28;20531;-77
2022/07/11 02:25:09;;;;;;;35.95;18.25;;;;;;;16.16;100.00;102022.44;5034319;28;20030;-77
2022/07/11 02:27:35;;;;;;;37.20;17.33;;;;;;;16.05;100.00;102022.47;5032583;28;20052;-77
2022/07/11 02:30:01;;;;;;;38.85;17.85;;;;;;;16.07;100.00;102015.81;5037353;28;20041;-77
2022/07/11 02:32:26;;;;;;;38.40;18.70;;;;;;;16.03;100.00;102017.06;5031553;28;20109;-77
2022/07/11 02:34:53;;;;;;;41.38;19.23;;;;;;;15.96;100.00;102011.16;5015163;28;20136;-77
2022/07/11 02:37:19;;;;;;;38.30;18.05;;;;;;;16.10;100.00;102017.41;5032672;28;20037;-77
2022/07/11 02:39:45;;;;;;;36.55;17.98;;;;;;;16.09;100.00;102016.56;5052883;28;20472;-77
2022/07/11 02:42:11;;;;;;;29.20;17.58;;;;;;;16.05;100.00;102014.16;5049356;28;20024;-77
2022/07/11 02:44:36;;;;;;;37.28;17.25;;;;;;;16.02;100.00;102017.19;5026506;28;20053;-76
2022/07/11 02:47:02;;;;;;;37.30;17.48;;;;;;;16.06;100.00;102010.41;5030910;28;20114;-77
2022/07/11 02:49:30;;;;;;;36.97;18.15;;;;;;;16.05;100.00;102008.66;5041963;28;20060;-77
2022/07/11 02:51:56;;;;;;;29.95;15.98;;;;;;;16.14;100.00;102011.50;5045090;28;20038;-77
2022/07/11 02:54:21;;;;;;;32.72;17.50;;;;;;;16.19;100.00;102013.03;5038033;28;20415;-77
2022/07/11 02:56:47;;;;;;;28.25;15.98;;;;;;;16.28;100.00;102009.47;5023610;28;20075;-77
2022/07/11 02:59:13;;;;;;;31.15;16.08;;;;;;;16.35;100.00;102008.81;5022630;28;20040;-77
2022/07/11 03:01:41;;;;;;;39.20;14.98;;;;;;;16.26;100.00;102009.59;5042723;28;20063;-77
2022/07/11 03:04:08;;;;;;;33.88;14.32;;;;;;;16.20;100.00;102004.59;5038945;28;20033;-77
2022/07/11 03:06:33;;;;;;;37.53;15.23;;;;;;;16.22;100.00;102012.78;5028095;28;20036;-77
2022/07/11 03:08:59;;;;;;;28.83;14.23;;;;;;;16.28;100.00;102004.84;5033049;28;20448;-77
2022/07/11 03:11:24;;;;;;;28.25;14.18;;;;;;;16.31;100.00;102007.31;5015114;28;20041;-77
2022/07/11 03:13:50;;;;;;;28.83;12.82;;;;;;;16.35;100.00;102006.06;5031260;28;20128;-77
2022/07/11 03:16:15;;;;;;;25.65;12.77;;;;;;;16.44;100.00;102009.91;5036538;28;20045;-77
2022/07/11 03:18:41;;;;;;;25.90;11.52;;;;;;;16.42;100.00;102006.41;5050130;28;20059;-77
2022/07/11 03:21:06;;;;;;;25.25;12.52;;;;;;;16.47;100.00;102014.31;5046707;28;20036;-77
2022/07/11 03:23:32;;;;;;;23.48;12.13;;;;;;;16.50;100.00;102014.91;5038665;28;20087;-77
2022/07/11 03:25:57;;;;;;;19.05;11.50;;;;;;;16.56;100.00;102023.69;5033683;28;20047;-76
2022/07/11 03:28:23;;;;;;;29.20;11.65;;;;;;;16.50;100.00;102025.09;5035727;28;20041;-77
2022/07/11 03:30:48;;;;;;;27.80;12.25;;;;;;;16.43;100.00;102013.69;5029874;28;20037;-77
2022/07/11 03:33:14;;;;;;;24.70;11.52;;;;;;;16.40;100.00;102018.59;5041970;28;20079;-76
2022/07/11 03:35:41;;;;;;;27.45;11.50;;;;;;;16.42;100.00;102019.34;5041369;28;20056;-76
2022/07/11 03:38:07;;;;;;;24.05;11.63;;;;;;;16.45;100.00;102016.34;5006076;28;20044;-77
2022/07/11 03:40:32;;;;;;;28.02;11.07;;;;;;;16.53;100.00;102016.56;5050910;28;20440;-77
2022/07/11 03:42:58;;;;;;;28.23;11.38;;;;;;;16.57;100.00;102019.94;5025456;28;20124;-77
2022/07/11 03:45:23;;;;;;;25.90;11.10;;;;;;;16.58;100.00;102017.03;5036121;28;20117;-77
2022/07/11 03:47:49;;;;;;;23.63;10.63;;;;;;;16.55;100.00;102011.75;5029616;28;20037;-77
2022/07/11 03:50:16;;;;;;;24.00;10.60;;;;;;;16.57;100.00;102018.03;5045238;28;20412;-77
2022/07/11 03:52:42;;;;;;;30.15;12.20;;;;;;;16.59;100.00;102017.91;5036541;28;20033;-77
2022/07/11 03:55:08;;;;;;;25.42;11.52;;;;;;;16.74;100.00;102027.63;5042452;28;20029;-77
2022/07/11 03:57:34;;;;;;;22.08;10.48;;;;;;;16.68;100.00;102025.41;5030955;28;20033;-76
2022/07/11 04:00:03;;;;;;;29.73;10.85;;;;;;;16.59;100.00;102024.28;5046498;28;20515;-76
2022/07/11 04:02:29;;;;;;;24.35;10.40;;;;;;;16.58;100.00;102021.66;5046411;28;20536;-76
2022/07/11 04:04:54;;;;;;;25.20;11.45;;;;;;;16.54;100.00;102023.81;5045666;28;20117;-77
2022/07/11 04:07:20;;;;;;;32.50;12.10;;;;;;;16.58;100.00;102017.03;5033190;28;20080;-77
2022/07/11 04:09:45;;;;;;;26.30;11.18;;;;;;;16.62;100.00;102012.09;5034926;28;20401;-77
2022/07/11 04:12:11;;;;;;;36.05;12.05;;;;;;;16.69;100.00;102011.44;5033598;28;20025;-77
2022/07/11 04:14:37;;;;;;;28.65;10.77;;;;;;;16.62;100.00;102010.22;5041070;28;20037;-76
2022/07/11 04:17:03;;;;;;;29.95;11.85;;;;;;;16.64;100.00;102008.22;5026570;28;20048;-76
2022/07/11 04:19:29;;;;;;;17.55;10.35;;;;;;;16.65;100.00;102017.38;5042873;28;20119;-76
2022/07/11 04:21:54;;;;;;;20.83;9.98;;;;;;;16.59;100.00;102015.13;5026481;28;20141;-76
2022/07/11 04:24:20;;;;;;;19.20;10.38;;;;;;;16.61;100.00;102014.00;5033732;28;20060;-74
2022/07/11 04:26:45;;;;;;;24.77;10.50;;;;;;;16.64;100.00;102015.59;5046913;28;20099;-74
2022/07/11 04:29:11;;;;;;;31.67;11.93;;;;;;;16.63;100.00;102023.03;5037950;28;20167;-73
2022/07/11 04:31:37;;;;;;;31.05;10.77;;;;;;;16.66;100.00;102030.16;5047067;28;20053;-74
2022/07/11 04:34:02;;;;;;;26.45;10.15;;;;;;;16.71;100.00;102022.38;5033805;28;20041;-75
2022/07/11 04:36:28;;;;;;;30.45;10.65;;;;;;;16.76;100.00;102025.63;5050303;28;20175;-73
2022/07/11 04:38:53;;;;;;;27.55;10.68;;;;;;;16.81;100.00;102028.00;5031139;28;20120;-74
2022/07/11 04:41:19;;;;;;;22.08;10.18;;;;;;;16.80;100.00;102024.31;5044264;28;20041;-74
2022/07/11 04:43:44;;;;;;;25.52;10.50;;;;;;;16.82;100.00;102024.19;5047723;28;20491;-74
2022/07/11 04:46:10;;;;;;;24.13;11.20;;;;;;;16.80;100.00;102021.56;5021333;28;20041;-75
2022/07/11 04:48:37;;;;;;;24.55;11.80;;;;;;;16.79;100.00;102027.22;5037169;28;20385;-75
2022/07/11 04:51:05;;;;;;;29.05;11.10;;;;;;;16.81;100.00;102030.75;5026490;28;20048;-75
2022/07/11 04:53:31;;;;;;;27.10;12.00;;;;;;;16.83;100.00;102029.59;5050814;28;20403;-76
2022/07/11 04:55:56;;;;;;;23.60;11.23;;;;;;;16.89;100.00;102036.53;5001298;28;20058;-76
2022/07/11 04:58:22;;;;;;;23.85;11.38;;;;;;;16.92;100.00;102036.25;5023199;28;20056;-74
2022/07/11 05:00:47;;;;;;;33.17;11.70;;;;;;;16.85;100.00;102033.13;5033241;28;20033;-74
2022/07/11 05:03:14;;;;;;;24.85;11.05;;;;;;;16.89;100.00;102036.53;5040993;28;20060;-73
2022/07/11 05:05:40;;;;;;;18.17;10.70;;;;;;;16.84;100.00;102044.28;5029020;28;20037;-74
2022/07/11 05:08:06;;;;;;;28.73;11.45;;;;;;;16.81;100.00;102041.81;5050621;28;20048;-74
2022/07/11 05:10:33;;;;;;;22.48;11.35;;;;;;;16.83;100.00;102043.44;5035878;28;20037;-74
2022/07/11 05:13:00;;;;;;;23.05;11.60;;;;;;;16.85;100.00;102041.44;5034711;28;20116;-74
2022/07/11 05:15:25;;;;;;;26.40;11.57;;;;;;;16.86;100.00;102047.88;5041268;28;20132;-74
2022/07/11 05:17:51;;;;;;;27.52;12.32;;;;;;;16.87;100.00;102052.38;5043057;28;20029;-75
2022/07/11 05:20:16;;;;;;;27.75;11.82;;;;;;;16.95;100.00;102052.56;5033670;28;20115;-75
2022/07/11 05:22:42;;;;;;;25.20;11.48;;;;;;;16.98;100.00;102065.28;5034161;28;20069;-77
2022/07/11 05:25:08;;;;;;;26.48;11.25;;;;;;;16.96;100.00;102051.56;5034629;28;20037;-76
2022/07/11 05:27:34;;;;;;;28.90;11.68;;;;;;;16.89;100.00;102062.31;5034361;28;20044;-76
2022/07/11 05:29:59;;;;;;;20.38;11.00;;;;;;;16.92;100.00;102054.75;5033564;28;20083;-77
2022/07/11 05:32:25;;;;;;;25.17;11.68;;;;;;;16.97;100.00;102056.09;5036669;28;20065;-77
2022/07/11 05:34:51;;;;;;;19.50;10.95;;;;;;;16.91;100.00;102053.88;5039260;28;20067;-77
2022/07/11 05:37:17;;;;;;;24.48;11.05;;;;;;;16.97;100.00;102050.56;5035154;28;20108;-77
2022/07/11 05:39:42;;;;;;;22.85;11.15;;;;;;;16.93;100.00;102062.91;5040020;28;20033;-77
2022/07/11 05:42:07;;;;;;;22.40;10.45;;;;;;;17.01;100.00;102049.28;5042851;28;20396;-76
2022/07/11 05:44:33;;;;;;;21.15;10.25;;;;;;;16.97;100.00;102056.09;5034059;28;20129;-76
2022/07/11 05:47:00;;;;;;;21.38;9.88;;;;;;;17.02;100.00;102045.50;5024399;28;20045;-76
2022/07/11 05:49:25;;;;;;;26.63;8.68;;;;;;;17.21;100.00;102060.50;5050651;28;20035;-76
2022/07/11 05:51:51;;;;;;;19.73;9.05;;;;;;;17.12;100.00;102053.00;5051769;28;20021;-76
2022/07/11 05:54:16;;;;;;;16.10;7.22;;;;;;;17.24;100.00;102054.69;5031522;28;20050;-76
2022/07/11 05:56:42;;;;;;;21.67;7.97;;;;;;;17.21;100.00;102061.34;5021252;28;20400;-76
2022/07/11 05:59:08;;;;;;;20.20;7.90;;;;;;;17.17;100.00;102062.66;5015840;28;20029;-76
2022/07/11 06:01:34;;;;;;;15.85;6.68;;;;;;;17.14;100.00;102065.69;5046294;28;20033;-76
2022/07/11 06:04:00;;;;;;;22.65;7.63;;;;;;;17.05;100.00;102066.50;5039681;28;20362;-76
2022/07/11 06:06:26;;;;;;;22.88;7.72;;;;;;;17.15;100.00;102069.31;5033609;28;20048;-76
2022/07/11 06:08:53;;;;;;;17.98;8.32;;;;;;;17.23;100.00;102067.66;5040328;28;20033;-76
2022/07/11 06:11:19;;;;;;;15.32;7.45;;;;;;;17.23;100.00;102067.66;5043743;28;20037;-76
2022/07/11 06:13:45;;;;;;;20.85;7.97;;;;;;;17.27;100.00;102069.13;5034252;28;20473;-76
2022/07/11 06:16:11;;;;;;;24.00;8.15;;;;;;;17.27;100.00;102069.13;5007653;28;20040;-76
2022/07/11 06:18:38;;;;;;;21.10;7.30;;;;;;;17.48;100.00;102076.56;5044620;28;20374;-76
2022/07/11 06:21:04;;;;;;;16.40;7.18;;;;;;;17.59;100.00;102072.81;5017640;28;20115;-77
2022/07/11 06:23:30;;;;;;;24.10;7.10;;;;;;;17.54;100.00;102072.34;5043652;28;20353;-76
2022/07/11 06:25:58;;;;;;;11.88;6.47;;;;;;;17.87;100.00;102075.84;5048707;28;20115;-78
2022/07/11 06:28:24;;;;;;;15.48;6.93;;;;;;;17.61;100.00;102084.63;5040518;28;20486;-76
2022/07/11 06:30:49;;;;;;;12.18;7.55;;;;;;;17.49;100.00;102083.84;5035739;28;20116;-76
2022/07/11 06:33:19;;;;;;;17.08;7.43;;;;;;;17.56;100.00;102085.06;5030260;28;20412;-76
2022/07/11 06:35:46;;;;;;;20.67;7.20;;;;;;;17.40;100.00;102081.91;5037159;28;20053;-76
2022/07/11 06:38:13;;;;;;;15.25;6.85;;;;;;;17.37;100.00;102083.03;5033020;28;20459;-75
2022/07/11 06:40:38;;;;;;;17.23;6.75;;;;;;;17.34;100.00;102076.91;5041286;28;20029;-75
2022/07/11 06:43:04;;;;;;;27.20;7.20;;;;;;;17.32;100.00;102071.50;5033667;28;20060;-75
2022/07/11 06:45:30;;;;;;;16.77;7.15;;;;;;;17.42;100.00;102082.63;5025018;28;20034;-74
2022/07/11 06:47:55;;;;;;;18.63;7.38;;;;;;;17.29;100.00;102077.31;5047277;28;20131;-76
2022/07/11 06:50:21;;;;;;;13.88;8.02;;;;;;;17.32;100.00;102088.09;5044322;28;20030;-76
2022/07/11 06:52:47;;;;;;;15.32;7.18;;;;;;;17.37;100.00;102079.41;5029627;28;20160;-75
2022/07/11 06:55:14;;;;;;;20.23;7.90;;;;;;;17.31;100.00;102080.81;5019029;28;20034;-75
2022/07/11 06:57:39;;;;;;;24.00;8.30;;;;;;;17.33;100.00;102084.34;5041806;28;20041;-75
2022/07/11 07:00:07;;;;;;;24.67;8.88;;;;;;;17.33;100.00;102080.66;5033739;28;20392;-75
2022/07/11 07:02:32;;;;;;;27.67;9.00;;;;;;;17.43;100.00;102081.59;5033193;28;20091;-75
2022/07/11 07:04:58;;;;;;;19.70;8.95;;;;;;;17.49;100.00;102074.66;5031448;28;20396;-76
2022/07/11 07:07:27;;;;;;;17.02;7.88;;;;;;;17.57;100.00;102086.78;5015180;28;20030;-77
2022/07/11 07:09:54;;;;;;;26.45;9.35;;;;;;;17.85;100.00;102077.91;5041388;28;20409;-76
2022/07/11 07:12:21;;;;;;;21.27;8.07;;;;;;;17.77;100.00;102075.81;5035848;28;20025;-78
2022/07/11 07:14:46;;;;;;;16.02;7.78;;;;;;;17.76;100.00;102076.84;5036837;28;20535;-76
2022/07/11 07:17:12;;;;;;;14.63;8.02;;;;;;;17.81;100.00;102075.41;5040347;28;20037;-76
2022/07/11 07:19:37;;;;;;;12.88;6.18;;;;;;;17.68;100.00;102065.59;5024539;28;20393;-76
2022/07/11 07:22:03;;;;;;;11.55;5.55;;;;;;;17.92;100.00;102073.56;5033941;28;20094;-76
2022/07/11 07:24:28;;;;;;;13.35;6.03;;;;;;;17.92;100.00;102070.81;5037299;28;20037;-76
2022/07/11 07:26:54;;;;;;;17.88;5.72;;;;;;;17.83;100.00;102075.28;5042983;28;20033;-77
2022/07/11 07:29:19;;;;;;;13.48;6.10;;;;;;;17.87;100.00;102075.84;5039103;28;20033;-77
2022/07/11 07:31:45;;;;;;;14.82;5.95;;;;;;;17.86;100.00;102072.22;5038270;28;20046;-77
2022/07/11 07:34:10;;;;;;;14.30;6.45;;;;;;;17.90;100.00;102078.38;5042025;28;20103;-77
2022/07/11 07:36:36;;;;;;;11.60;6.25;;;;;;;18.01;100.00;102072.75;5042141;28;20401;-77
2022/07/11 07:39:03;;;;;;;14.35;6.75;;;;;;;17.96;100.00;102072.28;5040946;28;20053;-77
2022/07/11 07:41:28;;;;;;;12.07;6.15;;;;;;;17.83;100.00;102067.81;5032577;28;20147;-77
2022/07/11 07:43:54;;;;;;;16.00;5.80;;;;;;;17.84;100.00;102065.94;5038553;28;20111;-75
2022/07/11 07:46:19;;;;;;;9.38;5.70;;;;;;;17.75;100.00;102075.94;5036803;28;20136;-77
2022/07/11 07:48:45;;;;;;;8.05;5.47;;;;;;;17.74;100.00;102067.78;5045206;28;20036;-77
2022/07/11 07:51:11;;;;;;;12.18;5.50;;;;;;;17.78;100.00;102059.06;5045540;28;20045;-75
2022/07/11 07:53:36;;;;;;;11.68;5.30;;;;;;;17.78;100.00;102070.13;5022777;28;20400;-76
2022/07/11 07:56:03;;;;;;;9.55;5.22;;;;;;;17.96;100.00;102063.97;5053436;28;20401;-76
2022/07/11 07:58:29;;;;;;;16.20;5.70;;;;;;;17.85;100.00;102072.38;5043243;28;20049;-76
2022/07/11 08:03:38;;;;;;;12.00;5.18;;;;;;;17.83;100.00;102075.28;5036354;28;20052;-76
2022/07/11 08:06:04;;;;;;;11.73;4.57;;;;;;;17.90;100.00;102078.38;5043775;28;20037;-76
2022/07/11 08:08:29;;;;;;;13.55;5.13;;;;;;;17.86;100.00;102071.34;5025333;28;20396;-76
2022/07/11 08:10:55;;;;;;;10.85;4.53;;;;;;;17.92;100.00;102088.34;5035389;28;20037;-76
2022/07/11 08:13:21;;;;;;;10.38;3.88;;;;;;;17.95;100.00;102089.94;5033544;28;20048;-76
2022/07/11 08:15:47;;;;;;;6.30;2.90;;;;;;;18.02;100.00;102093.91;5033429;28;20029;-76
2022/07/11 08:18:13;;;;;;;6.60;3.35;;;;;;;17.99;100.00;102096.97;5038359;28;20102;-76
2022/07/11 08:20:38;;;;;;;7.57;3.83;;;;;;;17.88;100.00;102100.69;5038488;28;20112;-76
2022/07/11 08:23:04;;;;;;;5.47;2.53;;;;;;;18.00;100.00;102095.94;5051912;28;20172;-76
2022/07/11 08:25:30;;;;;;;4.75;2.67;;;;;;;17.96;100.00;102100.88;5033818;28;20116;-75
2022/07/11 08:27:56;;;;;;;8.77;3.20;;;;;;;18.00;100.00;102101.47;5046354;28;20504;-75
2022/07/11 08:30:21;;;;;;;5.28;2.78;;;;;;;17.89;100.00;102098.78;5016956;28;20080;-75
2022/07/11 08:32:47;;;;;;;10.02;5.72;;;;;;;17.99;100.00;102100.59;5000379;28;20038;-75
2022/07/11 08:35:15;;;;;;;14.05;5.90;;;;;;;17.84;100.00;102099.19;5016947;28;20583;-75
2022/07/11 08:37:41;;;;;;;18.50;9.77;;;;;;;17.94;100.00;102102.91;5031240;28;20041;-76
2022/07/11 08:40:07;;;;;;;16.48;9.52;;;;;;;17.81;100.00;102097.56;5034617;28;20523;-75
2022/07/11 08:42:39;;;;;;;21.80;8.32;;;;;;;17.68;100.00;102096.06;5045367;28;20199;-74
2022/07/11 08:45:05;;;;;;;26.23;8.85;;;;;;;17.83;100.00;102091.91;5046026;28;20033;-75
2022/07/11 08:47:33;;;;;;;22.17;8.27;;;;;;;17.65;100.00;102091.66;5033425;28;20087;-75
2022/07/11 08:49:59;;;;;;;17.35;8.57;;;;;;;17.60;100.00;102094.84;5033518;28;20113;-75
2022/07/11 08:52:26;;;;;;;24.70;10.70;;;;;;;17.71;100.00;102101.28;5017682;28;20040;-76
2022/07/11 08:54:51;;;;;;;18.63;9.63;;;;;;;17.65;100.00;102099.97;5034104;28;20075;-75
2022/07/11 08:57:17;;;;;;;19.48;8.20;;;;;;;17.74;100.00;102104.69;5033900;28;20048;-75
2022/07/11 08:59:44;;;;;;;20.67;8.50;;;;;;;17.70;100.00;102103.19;5040383;28;20461;-75
2022/07/11 09:02:12;;;;;;;21.13;8.93;;;;;;;17.64;100.00;102098.19;5053322;28;20033;-76
2022/07/11 09:04:37;;;;;;;17.33;7.88;;;;;;;17.66;100.00;102093.41;5039837;28;20030;-76
2022/07/11 09:07:03;;;;;;;11.82;7.65;;;;;;;17.73;100.00;102099.28;5032592;28;20037;-76
2022/07/11 09:09:29;;;;;;;14.82;8.00;;;;;;;17.75;100.00;102103.66;5034041;28;20038;-75
2022/07/11 09:11:57;;;;;;;18.38;6.63;;;;;;;17.81;100.00;102099.47;5032721;28;20113;-77
2022/07/11 09:14:25;;;;;;;10.85;6.38;;;;;;;17.64;100.00;102101.88;5041318;28;20030;-75
2022/07/11 09:17:01;;;;;;;10.55;6.65;;;;;;;17.94;100.00;102104.81;5044732;28;20044;-76
2022/07/11 09:19:30;;;;;;;8.45;4.53;;;;;;;17.92;100.00;102095.75;5047073;28;20396;-76
2022/07/11 09:28:00;;;;;;;5.97;3.38;;;;;;;18.32;100.00;102109.63;5049690;28;20145;-76
2022/07/11 09:30:32;;;;;;;5.95;3.40;;;;;;;18.54;100.00;102102.97;5045378;28;20067;-76
2022/07/11 09:33:09;;;;;;;7.45;3.08;;;;;;;18.55;100.00;102106.59;5027553;28;20029;-76
2022/07/11 09:35:45;;;;;;;11.18;3.45;;;;;;;18.61;100.00;102113.47;5018566;28;20555;-76
2022/07/11 09:38:13;;;;;;;7.50;3.20;;;;;;;18.55;100.00;102112.16;5033290;28;20029;-77
2022/07/11 09:40:43;;;;;;;5.38;3.55;;;;;;;18.64;100.00;102111.28;5040952;28;20037;-76
2022/07/11 09:43:09;;;;;;;7.45;4.10;;;;;;;18.55;100.00;102103.84;5038334;28;20069;-76
2022/07/11 09:45:35;;;;;;;7.65;3.50;;;;;;;18.53;100.00;102103.97;5032751;28;20135;-76
2022/07/11 09:48:08;;;;;;;6.10;3.30;;;;;;;18.60;100.00;102107.06;5026033;28;20029;-77
2022/07/11 09:50:34;;;;;;;5.15;2.70;;;;;;;18.58;100.00;102097.09;5021084;28;20125;-77
2022/07/11 09:53:04;;;;;;;5.35;3.05;;;;;;;18.59;100.00;102099.72;5027256;28;20112;-76
2022/07/11 09:55:32;;;;;;;5.82;3.00;;;;;;;18.55;100.00;102096.38;5042117;28;20032;-76
2022/07/11 09:57:58;;;;;;;6.25;3.25;;;;;;;18.52;100.00;102093.03;5048599;28;20025;-76
2022/07/11 10:00:24;;;;;;;3.30;2.75;;;;;;;18.50;100.00;102106.16;5032768;28;20370;-76
2022/07/11 10:02:52;;;;;;;5.90;3.25;;;;;;;18.61;100.00;102102.38;5016331;28;20045;-76
2022/07/11 10:05:17;;;;;;;5.63;3.42;;;;;;;18.64;100.00;102102.09;5032273;28;20555;-76
2022/07/11 10:07:43;;;;;;;13.32;3.90;;;;;;;18.58;100.00;102098.00;5032539;28;20033;-76
2022/07/11 10:10:10;;;;;;;4.75;3.15;;;;;;;18.71;100.00;102095.81;5052767;28;20040;-76
2022/07/11 10:12:36;;;;;;;6.82;2.92;;;;;;;18.86;100.00;102101.00;5035746;28;20021;-75
2022/07/11 10:15:13;;;;;;;6.50;3.45;;;;;;;18.73;100.00;102099.31;5035713;28;20079;-76
2022/07/11 10:17:56;;;;;;;5.97;3.85;;;;;;;18.61;100.00;102103.28;5044745;28;20439;-76
2022/07/11 10:20:31;;;;;;;4.82;3.58;;;;;;;18.76;100.00;102100.06;5033673;28;20481;-76
2022/07/11 10:23:02;;;;;;;5.40;3.88;;;;;;;18.82;100.00;102100.34;5034037;28;20033;-76
2022/07/11 10:25:46;;;;;;;5.63;3.40;;;;;;;18.91;100.00;102101.44;5032770;28;20516;-76
2022/07/11 10:28:38;;;;;;;9.05;3.45;;;;;;;18.95;100.00;102108.41;5051383;28;20037;-76
2022/07/11 10:31:04;;;;;;;8.00;4.10;;;;;;;19.09;100.00;102104.34;5052588;28;20048;-76
2022/07/11 10:33:30;;;;;;;11.13;3.65;;;;;;;19.32;100.00;102116.00;5052645;28;20032;-77
2022/07/11 10:35:56;;;;;;;7.47;4.78;;;;;;;19.43;100.00;102115.84;5032399;28;20114;-76
2022/07/11 10:38:23;;;;;;;6.60;4.80;;;;;;;19.33;100.00;102116.88;5032553;28;20037;-76
2022/07/11 10:40:57;;;;;;;6.00;4.53;;;;;;;19.55;100.00;102107.34;5033510;28;20041;-76
2022/07/11 10:43:22;;;;;;;8.50;3.63;;;;;;;19.70;100.00;102122.50;5031266;28;20055;-75
2022/07/11 10:46:02;;;;;;;7.88;4.10;;;;;;;19.60;100.00;102124.44;5056968;28;20037;-75
2022/07/11 10:48:31;;;;;;;5.90;3.60;;;;;;;19.52;100.00;102125.19;5050236;28;20021;-75
2022/07/11 10:51:24;;;;;;;5.95;3.45;;;;;;;19.58;100.00;102115.41;5035314;28;20045;-76
2022/07/11 10:53:51;;;;;;;6.28;3.75;;;;;;;19.65;100.00;102114.63;5035432;28;20056;-76
2022/07/11 10:56:36;;;;;;;11.13;4.90;;;;;;;19.53;100.00;102115.84;5035644;28;20037;-76
2022/07/11 10:59:15;;;;;;;7.03;3.88;;;;;;;19.46;100.00;102123.00;5036762;28;20029;-75
2022/07/11 11:02:12;;;;;;;7.25;4.53;;;;;;;19.47;100.00;102130.31;5048352;28;20033;-76
2022/07/11 11:04:47;;;;;;;6.63;3.90;;;;;;;19.41;100.00;102119.78;5018521;28;20053;-75
2022/07/11 11:07:38;;;;;;;22.42;4.22;;;;;;;19.23;100.00;102116.88;5035567;28;20472;-76
2022/07/11 11:10:18;;;;;;;8.68;4.97;;;;;;;19.04;100.00;102132.53;5036458;28;20159;-75
2022/07/11 11:13:09;;;;;;;8.57;5.82;;;;;;;18.99;100.00;102122.88;5036423;28;20021;-75
2022/07/11 11:15:49;;;;;;;12.30;6.68;;;;;;;19.15;100.00;102125.97;5032014;28;20048;-76
2022/07/11 11:18:26;;;;;;;20.67;7.70;;;;;;;19.30;100.00;102123.63;5035943;28;20465;-75